Time;durP1;ratioP1;P1;durP2;ratioP2;P2;SDS_P1;SDS_P2;PMS_P1;PMS_P2;Temp;Humidity;BMP_temperature;BMP_pressure;BME280_temperature;BME280_humidity;BME280_pressure;Samples;Min_cycle;Max_cycle;Signal;HPM_P1;HPM_P2
2021/07/26 00:37:26;;;;;;;;;37.00;34.00;35.00;29.70;;;;;;77967;26;6663;-89
2021/07/26 00:37:47;;;;;;;;;39.75;34.50;35.00;29.70;;;;;;676052;29;6575;-92
2021/07/26 00:38:16;;;;;;;;;43.25;34.00;35.00;29.80;;;;;;675535;29;6034;-93
2021/07/26 00:39:19;;;;;;;;;38.40;34.00;35.00;29.80;;;;;;675910;29;6416;-94
2021/07/26 00:39:46;;;;;;;;;35.50;33.00;35.00;29.70;;;;;;675830;29;6560;-94
2021/07/26 00:40:09;;;;;;;;;37.00;34.00;35.10;29.90;;;;;;675388;29;8216;-95
2021/07/26 00:40:32;;;;;;;;;37.60;33.60;35.10;29.80;;;;;;672711;29;6394;-94
2021/07/26 00:41:05;;;;;;;;;39.50;35.00;35.10;29.80;;;;;;673368;29;6433;-93
2021/07/26 00:41:29;;;;;;;;;44.75;36.75;35.10;30.60;;;;;;672439;29;6392;-93
2021/07/26 00:42:21;;;;;;;;;40.00;34.40;35.10;31.40;;;;;;672814;29;6336;-93
2021/07/26 00:42:59;;;;;;;;;40.20;34.40;35.10;34.10;;;;;;673857;29;6404;-94
2021/07/26 00:43:37;;;;;;;;;38.40;34.20;35.20;33.60;;;;;;668051;29;6484;-94
2021/07/26 00:44:12;;;;;;;;;38.20;33.20;35.20;32.50;;;;;;669612;29;6389;-92
2021/07/26 00:44:34;;;;;;;;;38.60;34.40;35.20;32.30;;;;;;669019;29;6459;-91
2021/07/26 00:44:55;;;;;;;;;38.00;33.00;35.20;32.20;;;;;;667746;29;6628;-91
2021/07/26 00:45:16;;;;;;;;;36.50;32.00;35.20;31.90;;;;;;669658;29;6551;-92
2021/07/26 00:45:57;;;;;;;;;37.60;32.80;35.20;31.80;;;;;;670368;29;6202;-93
2021/07/26 00:46:21;;;;;;;;;45.00;36.25;35.30;31.50;;;;;;669987;29;6458;-93
2021/07/26 00:46:56;;;;;;;;;41.75;34.75;35.20;31.40;;;;;;672224;29;6487;-94
2021/07/26 00:49:06;;;;;;;;;;;;;;;;;;;;;
2021/07/26 00:51:07;;;;;;;;;35.40;32.60;35.30;31.60;;;;;;667639;29;6386;-94
2021/07/26 00:51:44;;;;;;;;;37.80;33.80;35.30;31.80;;;;;;665156;29;6248;-95
2021/07/26 00:52:28;;;;;;;;;41.50;33.75;35.30;31.50;;;;;;664772;29;6546;-92
2021/07/26 00:52:52;;;;;;;;;40.75;34.25;35.30;31.70;;;;;;664532;29;6271;-93
2021/07/26 00:53:22;;;;;;;;;36.40;32.40;35.30;31.60;;;;;;665330;29;6556;-96
2021/07/26 00:53:43;;;;;;;;;33.50;31.50;35.30;31.70;;;;;;667546;29;6420;-93
2021/07/26 00:54:57;;;;;;;;;42.75;34.50;35.30;31.60;;;;;;683231;23;6220;-92
2021/07/26 00:55:26;;;;;;;;;35.00;31.50;35.30;31.60;;;;;;678105;29;6245;-94
2021/07/26 00:55:52;;;;;;;;;37.00;33.00;35.30;31.50;;;;;;675525;29;6497;-93
2021/07/26 00:56:23;;;;;;;;;38.00;32.50;35.30;32.00;;;;;;674838;29;6262;-94
2021/07/26 00:56:46;;;;;;;;;36.75;33.00;35.30;31.80;;;;;;672652;29;6400;-94
2021/07/26 00:57:15;;;;;;;;;40.50;35.00;35.40;31.70;;;;;;672552;29;6661;-93
2021/07/26 00:57:37;;;;;;;;;41.80;35.80;35.40;31.50;;;;;;672354;29;6234;-92
2021/07/26 00:58:01;;;;;;;;;37.50;34.25;35.30;31.50;;;;;;670781;29;6283;-91
2021/07/26 00:58:25;;;;;;;;;38.75;34.50;35.30;31.50;;;;;;672346;29;6511;-91
2021/07/26 00:58:53;;;;;;;;;36.60;32.60;35.40;31.50;;;;;;672981;29;6169;-91
2021/07/26 00:59:15;;;;;;;;;43.00;36.80;35.40;31.50;;;;;;670836;29;6261;-90
2021/07/26 01:00:02;;;;;;;;;44.50;35.75;35.40;31.40;;;;;;670270;29;6764;-92
2021/07/26 01:01:17;;;;;;;;;;;;;;;;;;;;;
2021/07/26 01:13:26;;;;;;;;;;;;;;;;;;;;;
2021/07/26 01:56:02;;;;;;;;;37.25;33.25;35.20;30.00;;;;;;673126;29;6248;-92
2021/07/26 02:24:33;;;;;;;;;29.00;29.00;35.20;30.00;;;;;;679239;28;7472;-91
2021/07/26 02:24:54;;;;;;;;;31.80;30.80;35.20;30.10;;;;;;677755;29;6792;-92
2021/07/26 02:25:19;;;;;;;;;37.00;34.00;35.20;30.10;;;;;;678300;29;6031;-94
2021/07/26 02:28:40;;;;;;;;;30.75;30.00;35.20;30.00;;;;;;662325;29;6403;-93
2021/07/26 02:29:27;;;;;;;;;32.60;31.60;35.30;30.00;;;;;;659844;29;6679;-94
2021/07/26 02:32:17;;;;;;;;;;;;;;;;;;;;;
2021/07/26 02:33:35;;;;;;;;;;;;;;;;;;;;;
2021/07/26 02:37:58;;;;;;;;;;;;;;;;;;;;;
2021/07/26 03:14:46;;;;;;;;;34.00;31.50;35.20;29.80;;;;;;681651;28;7641;-94
2021/07/26 03:15:10;;;;;;;;;31.20;30.20;35.20;29.90;;;;;;671049;29;8447;-96
2021/07/26 03:15:40;;;;;;;;;29.20;28.20;35.20;29.80;;;;;;670342;29;6500;-94
2021/07/26 03:16:29;;;;;;;;;32.25;29.75;35.30;29.80;;;;;;670981;29;6660;-95
2021/07/26 03:34:28;;;;;;;;;38.00;33.00;35.20;29.80;;;;;;755788;23;6455;-96
2021/07/26 03:35:17;;;;;;;;;34.50;32.00;35.30;29.90;;;;;;674856;29;6559;-93
2021/07/26 03:38:23;;;;;;;;;36.80;32.00;35.20;29.80;;;;;;681233;28;6527;-96
2021/07/26 03:38:44;;;;;;;;;34.00;32.00;35.30;29.80;;;;;;680588;28;6621;-93
2021/07/26 03:45:45;;;;;;;;;31.00;29.60;35.30;29.80;;;;;;680920;28;6412;-95
2021/07/26 03:46:59;;;;;;;;;37.50;33.50;35.30;29.80;;;;;;678516;28;6230;-95
2021/07/26 03:47:35;;;;;;;;;31.20;30.20;35.20;29.80;;;;;;675056;29;6255;-96
2021/07/26 03:48:11;;;;;;;;;32.80;31.00;35.30;29.80;;;;;;672149;29;6434;-96
2021/07/26 03:48:34;;;;;;;;;33.60;31.00;35.40;29.80;;;;;;672977;29;6738;-94
2021/07/26 03:49:04;;;;;;;;;35.00;32.00;35.30;29.70;;;;;;673005;29;6453;-95
2021/07/26 03:49:31;;;;;;;;;36.00;32.00;35.30;29.70;;;;;;672843;29;8559;-95
2021/07/26 03:50:01;;;;;;;;;34.00;32.00;35.30;29.80;;;;;;670124;29;6284;-95
2021/07/26 03:50:25;;;;;;;;;35.25;32.75;35.30;29.70;;;;;;672571;29;6208;-96
2021/07/26 03:50:46;;;;;;;;;34.60;32.20;35.30;29.70;;;;;;671240;29;6502;-96
2021/07/26 03:51:12;;;;;;;;;33.60;31.40;35.30;29.70;;;;;;670132;29;6130;-96
2021/07/26 03:51:41;;;;;;;;;30.00;28.80;35.30;29.60;;;;;;670543;29;6209;-95
2021/07/26 03:52:04;;;;;;;;;36.00;32.00;35.20;29.70;;;;;;667401;29;6931;-96
2021/07/26 03:52:48;;;;;;;;;34.50;31.50;35.30;29.60;;;;;;668098;29;6218;-95
2021/07/26 03:53:11;;;;;;;;;30.25;29.75;35.30;29.60;;;;;;673239;29;6636;-96
2021/07/26 03:53:40;;;;;;;;;36.00;31.00;35.30;29.80;;;;;;670175;29;6220;-96
2021/07/26 03:54:13;;;;;;;;;34.80;32.40;35.30;29.60;;;;;;669863;29;6214;-94
2021/07/26 03:54:44;;;;;;;;;32.60;30.60;35.30;29.60;;;;;;665321;29;6284;-95
2021/07/26 03:55:12;;;;;;;;;34.80;31.60;35.20;29.50;;;;;;667305;29;6252;-95
2021/07/26 03:55:52;;;;;;;;;34.00;31.60;35.30;29.50;;;;;;667796;29;6563;-96
2021/07/26 03:56:45;;;;;;;;;30.80;29.40;35.30;29.50;;;;;;665063;29;6360;-95
2021/07/26 03:57:30;;;;;;;;;;;;;;;;;;;;;
2021/07/26 03:57:58;;;;;;;;;32.75;30.75;35.30;29.40;;;;;;671160;29;6160;-94
2021/07/26 03:58:28;;;;;;;;;39.50;35.00;35.30;29.50;;;;;;673224;29;6192;-96
2021/07/26 03:58:59;;;;;;;;;37.25;33.00;35.30;29.50;;;;;;673565;29;6362;-95
2021/07/26 03:59:26;;;;;;;;;31.00;30.00;35.20;29.50;;;;;;670685;29;6498;-96
2021/07/26 03:59:57;;;;;;;;;35.50;31.25;35.30;29.50;;;;;;670492;29;6573;-95
2021/07/26 04:01:29;;;;;;;;;36.25;32.75;35.30;29.50;;;;;;665160;29;7321;-95
2021/07/26 04:02:05;;;;;;;;;39.80;34.60;35.30;29.50;;;;;;662701;29;6271;-96
2021/07/26 04:02:28;;;;;;;;;38.40;33.00;35.30;29.50;;;;;;667734;29;6405;-95
2021/07/26 04:03:16;;;;;;;;;29.00;28.25;35.30;29.60;;;;;;667186;29;6355;-95
2021/07/26 04:03:38;;;;;;;;;33.60;31.40;35.30;29.60;;;;;;664802;29;6513;-95
2021/07/26 04:04:08;;;;;;;;;32.50;31.00;35.30;29.60;;;;;;664163;29;6679;-96
2021/07/26 04:04:32;;;;;;;;;31.00;30.00;35.20;29.50;;;;;;660125;29;6582;-96
2021/07/26 04:05:15;;;;;;;;;33.75;31.75;35.30;29.70;;;;;;655248;29;6350;-95
2021/07/26 04:06:14;;;;;;;;;34.60;32.60;35.30;29.70;;;;;;686458;23;6471;-94
2021/07/26 04:06:53;;;;;;;;;30.50;29.50;35.40;29.80;;;;;;684218;23;6509;-96
2021/07/26 04:07:33;;;;;;;;;30.60;30.00;35.30;29.80;;;;;;678298;29;6300;-95
2021/07/26 04:08:11;;;;;;;;;34.50;32.00;35.30;29.80;;;;;;677607;29;6248;-94
2021/07/26 04:08:49;;;;;;;;;33.40;30.00;35.30;29.70;;;;;;670791;29;6503;-96
2021/07/26 04:09:25;;;;;;;;;31.60;30.80;35.30;29.80;;;;;;668331;29;6500;-95
2021/07/26 04:09:48;;;;;;;;;36.50;32.50;35.40;29.90;;;;;;671211;29;6276;-92
2021/07/26 04:10:15;;;;;;;;;33.00;30.25;35.30;29.80;;;;;;668266;29;6293;-94
2021/07/26 04:11:01;;;;;;;;;28.25;27.25;35.30;29.80;;;;;;668346;29;6397;-96
2021/07/26 04:11:33;;;;;;;;;34.00;31.60;35.30;29.80;;;;;;670313;29;6269;-94
2021/07/26 04:12:02;;;;;;;;;29.80;28.80;35.30;29.80;;;;;;670675;29;6233;-95
2021/07/26 04:12:35;;;;;;;;;35.00;31.25;35.30;29.90;;;;;;670904;29;6234;-95
2021/07/26 04:13:00;;;;;;;;;31.00;30.00;35.30;29.80;;;;;;671704;29;6503;-96
2021/07/26 04:13:26;;;;;;;;;32.25;30.00;35.30;29.80;;;;;;671488;29;6637;-93
2021/07/26 04:15:36;;;;;;;;;31.25;30.00;35.30;29.90;;;;;;671746;29;6296;-91
2021/07/26 04:16:05;;;;;;;;;31.00;29.50;35.20;29.80;;;;;;671162;29;7264;-90
2021/07/26 04:16:49;;;;;;;;;33.80;31.40;35.30;30.00;;;;;;670657;29;6276;-93
2021/07/26 04:17:10;;;;;;;;;34.75;31.75;35.30;30.00;;;;;;660637;29;6371;-95
2021/07/26 04:17:54;;;;;;;;;33.00;30.75;35.20;29.90;;;;;;679127;23;6029;-93
2021/07/26 04:18:14;;;;;;;;;26.00;26.00;35.30;30.00;;;;;;668378;29;6700;-90
2021/07/26 04:18:36;;;;;;;;;32.60;30.00;35.20;30.00;;;;;;673318;29;6023;-90
2021/07/26 04:19:01;;;;;;;;;32.20;30.60;35.30;30.00;;;;;;670401;29;6116;-91
2021/07/26 04:19:22;;;;;;;;;35.80;32.40;35.20;30.00;;;;;;671615;29;6464;-91
2021/07/26 04:19:46;;;;;;;;;32.50;28.75;35.20;30.00;;;;;;672426;29;6444;-93
2021/07/26 04:20:11;;;;;;;;;35.50;33.00;35.20;30.00;;;;;;672676;29;6462;-90
2021/07/26 04:20:34;;;;;;;;;38.67;33.67;35.30;30.00;;;;;;667607;29;6532;-90
2021/07/26 04:20:57;;;;;;;;;33.25;31.00;35.20;30.00;;;;;;670391;29;6962;-91
2021/07/26 04:21:18;;;;;;;;;29.00;28.00;35.20;30.00;;;;;;667905;29;6512;-90
2021/07/26 04:21:39;;;;;;;;;32.00;30.00;35.30;30.00;;;;;;671357;29;6212;-90
2021/07/26 04:21:59;;;;;;;;;28.60;28.60;35.20;29.90;;;;;;671828;29;6094;-89
2021/07/26 04:22:22;;;;;;;;;33.25;32.00;35.20;29.90;;;;;;672735;29;6676;-89
2021/07/26 04:22:43;;;;;;;;;30.75;29.75;35.20;29.90;;;;;;671629;29;8519;-90
2021/07/26 04:23:04;;;;;;;;;32.25;30.00;35.30;30.00;;;;;;670320;29;6061;-88
2021/07/26 04:23:29;;;;;;;;;33.50;31.50;35.30;30.00;;;;;;672948;29;6120;-92
2021/07/26 04:23:52;;;;;;;;;32.00;29.00;35.30;30.00;;;;;;671504;29;6279;-91
2021/07/26 04:24:15;;;;;;;;;28.25;27.25;35.20;29.90;;;;;;669241;29;6231;-90
2021/07/26 04:24:36;;;;;;;;;30.75;30.00;35.20;29.90;;;;;;669770;29;6499;-91
2021/07/26 04:25:02;;;;;;;;;32.50;30.50;35.20;30.00;;;;;;668562;29;6308;-91
2021/07/26 04:25:23;;;;;;;;;29.40;29.00;35.20;30.00;;;;;;668814;29;6809;-91
2021/07/26 04:25:44;;;;;;;;;35.50;33.00;35.20;30.00;;;;;;670525;29;5995;-96
2021/07/26 04:26:08;;;;;;;;;35.00;32.00;35.30;29.90;;;;;;670069;29;6216;-95
2021/07/26 04:26:29;;;;;;;;;35.00;32.25;35.30;29.90;;;;;;670379;29;6799;-96
2021/07/26 04:26:53;;;;;;;;;34.75;32.00;35.20;29.90;;;;;;671273;29;6001;-93
2021/07/26 04:27:19;;;;;;;;;31.50;29.50;35.30;29.90;;;;;;668513;29;7423;-91
2021/07/26 04:27:40;;;;;;;;;33.00;30.60;35.30;29.90;;;;;;670578;29;6501;-94
2021/07/26 04:28:06;;;;;;;;;36.40;32.40;35.30;30.00;;;;;;670887;29;6239;-93
2021/07/26 04:28:32;;;;;;;;;32.00;30.00;35.30;30.00;;;;;;668029;29;6579;-92
2021/07/26 04:29:05;;;;;;;;;34.00;32.00;35.30;29.90;;;;;;668998;29;6269;-93
2021/07/26 04:29:28;;;;;;;;;32.50;30.00;35.30;30.00;;;;;;670868;29;6483;-95
2021/07/26 04:29:50;;;;;;;;;31.20;30.00;35.30;30.00;;;;;;669392;29;8374;-94
2021/07/26 04:30:12;;;;;;;;;32.60;30.60;35.30;30.00;;;;;;671086;29;6628;-91
2021/07/26 04:30:37;;;;;;;;;30.20;29.60;35.30;30.00;;;;;;673311;29;6182;-91
2021/07/26 04:31:00;;;;;;;;;30.75;29.75;35.20;29.90;;;;;;673806;29;6211;-92
2021/07/26 04:31:24;;;;;;;;;32.00;30.00;35.30;30.00;;;;;;671146;29;6364;-92
2021/07/26 04:31:46;;;;;;;;;32.00;30.60;35.30;30.00;;;;;;672864;29;6500;-91
2021/07/26 04:32:13;;;;;;;;;33.20;30.00;35.30;30.00;;;;;;673909;29;6676;-96
2021/07/26 04:32:48;;;;;;;;;34.20;31.60;35.30;30.00;;;;;;666179;29;6498;-94
2021/07/26 04:33:09;;;;;;;;;34.25;31.75;35.30;29.90;;;;;;667103;29;6974;-93
2021/07/26 04:33:30;;;;;;;;;33.40;30.00;35.30;29.90;;;;;;673727;29;6263;-92
2021/07/26 04:33:53;;;;;;;;;32.80;31.60;35.30;29.90;;;;;;674431;29;6114;-92
2021/07/26 04:34:13;;;;;;;;;32.00;30.00;35.30;29.80;;;;;;674510;29;6622;-94
2021/07/26 04:34:34;;;;;;;;;32.00;30.00;35.20;29.80;;;;;;673902;29;6397;-94
2021/07/26 04:35:02;;;;;;;;;29.20;27.60;35.30;29.90;;;;;;674107;29;6083;-94
2021/07/26 04:35:24;;;;;;;;;26.80;26.80;35.30;29.90;;;;;;671720;29;6566;-92
2021/07/26 04:35:45;;;;;;;;;32.75;30.75;35.20;29.80;;;;;;670642;29;8426;-92
2021/07/26 04:36:06;;;;;;;;;29.20;29.20;35.20;29.80;;;;;;664742;29;6189;-95
2021/07/26 04:36:27;;;;;;;;;35.25;31.75;35.20;29.90;;;;;;664370;29;6186;-96
2021/07/26 04:36:48;;;;;;;;;34.60;31.60;35.20;29.90;;;;;;663721;29;6039;-94
2021/07/26 04:37:11;;;;;;;;;31.00;29.00;35.20;29.80;;;;;;666330;29;6224;-93
2021/07/26 04:37:35;;;;;;;;;28.00;26.00;35.20;29.80;;;;;;666191;29;6558;-93
2021/07/26 04:37:56;;;;;;;;;28.75;27.75;35.20;29.80;;;;;;667597;29;7491;-95
2021/07/26 04:38:18;;;;;;;;;33.00;32.00;35.30;29.90;;;;;;668436;29;6233;-96
2021/07/26 04:38:40;;;;;;;;;30.50;29.75;35.20;29.80;;;;;;670545;29;6268;-95
2021/07/26 04:39:00;;;;;;;;;34.00;31.75;35.30;29.90;;;;;;670735;29;6352;-91
2021/07/26 04:39:25;;;;;;;;;31.20;30.20;35.30;29.80;;;;;;671808;29;6134;-93
2021/07/26 04:39:47;;;;;;;;;34.25;32.00;35.20;29.80;;;;;;672001;29;6239;-91
2021/07/26 04:40:10;;;;;;;;;33.00;31.25;35.20;29.70;;;;;;669209;29;8448;-91
2021/07/26 04:40:33;;;;;;;;;31.00;30.00;35.20;29.80;;;;;;669171;29;6511;-95
2021/07/26 04:40:53;;;;;;;;;28.00;27.00;35.20;29.70;;;;;;670871;29;8775;-94
2021/07/26 04:41:17;;;;;;;;;30.25;29.25;35.30;29.80;;;;;;670614;29;6057;-92
2021/07/26 04:41:39;;;;;;;;;30.00;27.00;35.20;29.70;;;;;;671687;29;6532;-93
2021/07/26 04:42:01;;;;;;;;;33.20;31.20;35.20;29.80;;;;;;671840;29;9207;-94
2021/07/26 04:42:24;;;;;;;;;26.00;26.00;35.20;29.80;;;;;;670444;29;6207;-95
2021/07/26 04:42:46;;;;;;;;;32.20;29.80;35.20;29.80;;;;;;671915;29;6442;-95
2021/07/26 04:43:07;;;;;;;;;28.60;27.60;35.30;29.80;;;;;;671852;29;8093;-92
2021/07/26 04:43:30;;;;;;;;;33.00;30.00;35.20;29.80;;;;;;673263;29;5963;-91
2021/07/26 04:43:54;;;;;;;;;33.20;31.20;35.20;29.80;;;;;;669346;29;8391;-93
2021/07/26 04:44:17;;;;;;;;;31.80;28.80;35.20;29.80;;;;;;666649;29;6755;-93
2021/07/26 04:44:41;;;;;;;;;30.60;29.60;35.20;29.80;;;;;;665554;29;8200;-94
2021/07/26 04:45:03;;;;;;;;;28.00;27.00;35.30;29.80;;;;;;665910;29;8394;-93
2021/07/26 04:45:24;;;;;;;;;28.25;27.75;35.30;29.90;;;;;;663296;29;6736;-92
2021/07/26 04:45:48;;;;;;;;;34.00;31.25;35.30;29.80;;;;;;665068;29;5971;-92
2021/07/26 04:46:10;;;;;;;;;31.80;30.20;35.30;29.90;;;;;;665242;29;7050;-92
2021/07/26 04:46:31;;;;;;;;;30.40;29.00;35.30;29.90;;;;;;667382;29;6533;-92
2021/07/26 04:46:51;;;;;;;;;30.00;28.80;35.30;29.90;;;;;;669640;29;6069;-93
2021/07/26 04:47:13;;;;;;;;;36.20;33.20;35.30;29.90;;;;;;671925;29;6105;-94
2021/07/26 04:47:34;;;;;;;;;34.25;31.50;35.30;29.80;;;;;;670965;29;6520;-92
2021/07/26 04:47:55;;;;;;;;;33.67;31.33;35.20;29.80;;;;;;671114;29;6137;-92
2021/07/26 04:48:16;;;;;;;;;31.40;29.80;35.20;29.80;;;;;;671308;29;6213;-93
2021/07/26 04:48:42;;;;;;;;;31.00;29.00;35.30;29.80;;;;;;670863;29;6431;-95
2021/07/26 04:49:03;;;;;;;;;32.60;30.00;35.20;29.80;;;;;;670050;29;6440;-90
2021/07/26 04:49:28;;;;;;;;;26.00;26.00;35.20;29.80;;;;;;670569;29;6371;-90
2021/07/26 04:49:49;;;;;;;;;30.60;29.00;35.20;29.70;;;;;;670235;29;6243;-90
2021/07/26 04:50:11;;;;;;;;;32.75;29.00;35.30;29.80;;;;;;673295;29;5950;-90
2021/07/26 04:51:42;;;;;;;;;32.00;30.60;35.20;29.70;;;;;;676281;29;6473;-91
2021/07/26 04:52:16;;;;;;;;;27.40;27.40;35.30;29.80;;;;;;680058;29;6185;-90
2021/07/26 04:52:37;;;;;;;;;29.50;28.50;35.30;29.80;;;;;;674603;29;6346;-91
2021/07/26 04:53:02;;;;;;;;;29.00;28.00;35.20;29.70;;;;;;676929;29;6520;-90
2021/07/26 04:53:27;;;;;;;;;33.60;31.00;35.30;29.80;;;;;;677225;29;6406;-91
2021/07/26 04:53:50;;;;;;;;;27.40;27.00;35.30;29.80;;;;;;674336;29;6307;-91
2021/07/26 04:54:12;;;;;;;;;27.00;27.00;35.30;29.80;;;;;;674522;29;6527;-90
2021/07/26 04:54:34;;;;;;;;;33.20;31.40;35.20;29.70;;;;;;674924;29;6955;-91
2021/07/26 04:54:58;;;;;;;;;31.80;29.60;35.30;29.80;;;;;;674942;29;6282;-90
2021/07/26 04:55:21;;;;;;;;;30.00;28.75;35.20;29.80;;;;;;673897;29;6081;-90
2021/07/26 04:55:42;;;;;;;;;28.00;26.80;35.30;29.90;;;;;;674202;29;6258;-91
2021/07/26 04:56:29;;;;;;;;;27.20;27.00;35.30;29.90;;;;;;676756;29;7369;-90
2021/07/26 04:57:03;;;;;;;;;31.25;30.00;35.30;29.90;;;;;;666129;29;8411;-91
2021/07/26 04:57:26;;;;;;;;;32.00;30.00;35.30;29.90;;;;;;666011;29;6734;-91
2021/07/26 04:57:51;;;;;;;;;37.40;33.40;35.30;29.90;;;;;;665518;29;8838;-91
2021/07/26 04:58:37;;;;;;;;;28.60;26.00;35.20;29.80;;;;;;665916;29;6790;-91
2021/07/26 04:59:02;;;;;;;;;30.00;26.00;35.30;29.90;;;;;;668777;29;6768;-90
2021/07/26 04:59:46;;;;;;;;;32.80;30.00;35.30;29.80;;;;;;668149;29;6982;-90
2021/07/26 05:00:10;;;;;;;;;28.80;27.00;35.30;29.80;;;;;;668298;29;8427;-90
2021/07/26 05:00:39;;;;;;;;;27.00;27.00;35.30;29.70;;;;;;666107;29;6526;-92
2021/07/26 05:01:23;;;;;;;;;30.50;28.75;35.30;29.70;;;;;;669585;29;6843;-95
2021/07/26 05:01:45;;;;;;;;;30.60;29.00;35.30;29.70;;;;;;669565;29;6684;-93
2021/07/26 05:02:05;;;;;;;;;31.00;30.00;35.30;29.70;;;;;;668892;29;6030;-92
2021/07/26 05:02:26;;;;;;;;;30.20;29.40;35.30;29.80;;;;;;666152;29;6037;-93
2021/07/26 05:02:50;;;;;;;;;30.00;29.00;35.30;29.80;;;;;;669016;29;6151;-94
2021/07/26 05:03:11;;;;;;;;;30.00;29.00;35.30;29.70;;;;;;668851;29;8616;-96
2021/07/26 05:03:32;;;;;;;;;27.25;26.25;35.30;29.70;;;;;;666080;29;6209;-94
2021/07/26 05:03:56;;;;;;;;;28.20;27.80;35.30;29.70;;;;;;666391;29;6079;-96
2021/07/26 05:04:18;;;;;;;;;32.80;30.60;35.30;29.70;;;;;;662690;29;6490;-94
2021/07/26 05:04:39;;;;;;;;;29.00;28.00;35.30;29.80;;;;;;667607;29;6842;-93
2021/07/26 05:05:05;;;;;;;;;32.40;31.00;35.30;29.80;;;;;;668708;29;6681;-93
2021/07/26 05:05:37;;;;;;;;;32.75;30.75;35.30;29.70;;;;;;671268;29;5935;-92
2021/07/26 05:06:08;;;;;;;;;34.75;31.75;35.30;29.70;;;;;;670227;29;6852;-93
2021/07/26 05:07:01;;;;;;;;;30.80;29.80;35.30;29.80;;;;;;682361;29;7082;-94
2021/07/26 05:07:24;;;;;;;;;28.00;27.40;35.30;29.70;;;;;;683285;29;6218;-91
2021/07/26 05:07:49;;;;;;;;;38.75;33.75;35.30;29.70;;;;;;679610;28;5879;-90
2021/07/26 05:08:30;;;;;;;;;31.00;30.00;35.30;29.70;;;;;;680631;29;6584;-91
2021/07/26 05:08:52;;;;;;;;;31.00;30.00;35.30;29.70;;;;;;675821;29;6575;-91
2021/07/26 05:09:15;;;;;;;;;35.50;33.00;35.30;29.70;;;;;;676008;29;6462;-91
2021/07/26 05:09:42;;;;;;;;;31.00;28.60;35.30;29.70;;;;;;673691;29;6526;-88
2021/07/26 05:10:03;;;;;;;;;35.75;32.00;35.30;29.70;;;;;;677818;29;6707;-89
2021/07/26 05:10:27;;;;;;;;;35.00;32.00;35.30;29.80;;;;;;679704;29;6229;-90
2021/07/26 05:10:48;;;;;;;;;32.60;31.60;35.30;29.70;;;;;;679248;29;6906;-92
2021/07/26 05:11:10;;;;;;;;;32.00;30.50;35.30;29.80;;;;;;679160;29;5770;-90
2021/07/26 05:11:36;;;;;;;;;33.80;31.40;35.20;29.70;;;;;;676267;29;8388;-91
2021/07/26 05:12:04;;;;;;;;;36.75;32.00;35.30;29.80;;;;;;673681;29;6663;-90
2021/07/26 05:12:26;;;;;;;;;34.00;32.00;35.20;29.70;;;;;;673176;29;8586;-96
2021/07/26 05:12:48;;;;;;;;;32.80;30.80;35.30;29.90;;;;;;670721;29;6638;-94
2021/07/26 05:13:09;;;;;;;;;34.00;31.00;35.30;29.90;;;;;;670807;29;6744;-95
2021/07/26 05:13:31;;;;;;;;;32.80;30.80;35.30;29.90;;;;;;670820;29;5995;-92
2021/07/26 05:13:51;;;;;;;;;33.60;31.60;35.30;29.80;;;;;;673130;29;6228;-93
2021/07/26 05:14:15;;;;;;;;;29.80;29.40;35.30;29.80;;;;;;673986;29;5989;-90
2021/07/26 05:14:36;;;;;;;;;29.00;27.60;35.30;29.80;;;;;;670846;29;6486;-91
2021/07/26 05:15:02;;;;;;;;;34.80;30.40;35.30;29.90;;;;;;668553;29;5850;-91
2021/07/26 05:15:25;;;;;;;;;34.60;32.20;35.30;29.80;;;;;;672807;29;6285;-92
2021/07/26 05:15:50;;;;;;;;;29.25;28.25;35.30;29.80;;;;;;673658;29;6259;-91
2021/07/26 05:16:11;;;;;;;;;26.60;26.60;35.30;29.80;;;;;;673459;29;6487;-91
2021/07/26 05:16:33;;;;;;;;;32.00;30.00;35.30;29.80;;;;;;694142;23;6570;-92
2021/07/26 05:16:59;;;;;;;;;27.60;26.20;35.30;29.80;;;;;;677708;29;6535;-90
2021/07/26 05:17:26;;;;;;;;;31.00;30.00;35.30;29.80;;;;;;679235;29;5969;-91
2021/07/26 05:17:50;;;;;;;;;32.25;30.75;35.30;29.80;;;;;;673760;29;7172;-90
2021/07/26 05:18:11;;;;;;;;;32.40;31.20;35.30;29.80;;;;;;675978;29;6227;-92
2021/07/26 05:18:56;;;;;;;;;31.20;29.60;35.30;29.80;;;;;;676487;29;6575;-91
2021/07/26 05:19:24;;;;;;;;;36.00;33.00;35.40;29.90;;;;;;675442;29;8261;-89
2021/07/26 05:19:46;;;;;;;;;29.75;29.00;35.30;29.80;;;;;;678894;29;6238;-93
2021/07/26 05:20:20;;;;;;;;;29.80;28.80;35.30;30.00;;;;;;676475;29;5972;-92
2021/07/26 05:20:41;;;;;;;;;30.00;28.00;35.30;30.80;;;;;;673197;29;6444;-91
2021/07/26 05:21:04;;;;;;;;;28.80;27.80;35.30;29.90;;;;;;674306;29;6224;-93
2021/07/26 05:21:25;;;;;;;;;36.80;33.40;35.30;29.80;;;;;;675983;29;6522;-92
2021/07/26 05:21:48;;;;;;;;;33.00;32.00;35.40;29.90;;;;;;678428;29;7006;-90
2021/07/26 05:22:11;;;;;;;;;32.00;30.40;35.30;29.80;;;;;;678541;29;6672;-90
2021/07/26 05:22:36;;;;;;;;;36.20;33.00;35.30;29.80;;;;;;675655;29;6452;-89
2021/07/26 05:23:17;;;;;;;;;37.00;33.00;35.30;29.80;;;;;;673699;29;6528;-91
2021/07/26 05:24:24;;;;;;;;;30.20;29.20;35.30;29.70;;;;;;673794;29;6566;-88
2021/07/26 05:24:57;;;;;;;;;32.00;30.00;35.30;29.80;;;;;;674539;29;6500;-90
2021/07/26 05:25:19;;;;;;;;;32.40;30.40;35.30;29.80;;;;;;673771;29;6333;-89
2021/07/26 05:25:46;;;;;;;;;30.25;28.25;35.30;29.90;;;;;;673528;29;6482;-90
2021/07/26 05:26:08;;;;;;;;;29.00;28.00;35.30;29.90;;;;;;674083;29;6262;-90
2021/07/26 05:26:40;;;;;;;;;33.20;31.20;35.30;29.90;;;;;;671880;29;6002;-89
2021/07/26 05:27:21;;;;;;;;;30.20;29.00;35.30;29.80;;;;;;671623;29;7007;-91
2021/07/26 05:27:54;;;;;;;;;32.40;30.00;35.30;29.80;;;;;;673613;29;6201;-90
2021/07/26 05:28:15;;;;;;;;;32.00;29.50;35.30;30.80;;;;;;671598;29;6282;-92
2021/07/26 05:28:47;;;;;;;;;36.20;31.40;35.30;29.80;;;;;;671888;29;6701;-90
2021/07/26 05:29:12;;;;;;;;;28.60;27.60;35.30;29.80;;;;;;672826;29;6450;-94
2021/07/26 05:29:37;;;;;;;;;30.60;28.60;35.30;29.80;;;;;;672621;29;6913;-91
2021/07/26 05:30:00;;;;;;;;;30.50;28.50;35.30;29.80;;;;;;669882;29;7243;-93
2021/07/26 05:30:27;;;;;;;;;37.00;33.00;35.30;29.90;;;;;;672970;29;6678;-92
2021/07/26 05:31:01;;;;;;;;;28.75;28.75;35.30;29.90;;;;;;672691;29;6542;-92
2021/07/26 05:31:24;;;;;;;;;27.20;27.20;35.30;29.90;;;;;;673957;29;6908;-91
2021/07/26 05:31:47;;;;;;;;;34.00;31.75;35.20;29.80;;;;;;672727;29;7084;-92
2021/07/26 05:32:11;;;;;;;;;32.00;31.00;35.40;30.00;;;;;;672183;29;6664;-90
2021/07/26 05:32:33;;;;;;;;;32.60;30.40;35.30;29.90;;;;;;669186;29;6281;-90
2021/07/26 05:33:05;;;;;;;;;30.20;29.20;35.40;30.00;;;;;;669463;29;8107;-90
2021/07/26 05:33:27;;;;;;;;;30.00;28.00;35.40;29.90;;;;;;669687;29;6565;-93
2021/07/26 05:33:48;;;;;;;;;30.00;30.00;35.30;29.90;;;;;;666730;29;6726;-90
2021/07/26 05:34:11;;;;;;;;;28.00;28.00;35.40;30.00;;;;;;669489;29;6304;-91
2021/07/26 05:35:00;;;;;;;;;28.75;28.00;35.40;30.00;;;;;;672635;29;7405;-89
2021/07/26 05:35:27;;;;;;;;;28.60;28.60;35.40;29.90;;;;;;674856;29;6243;-91
2021/07/26 05:36:01;;;;;;;;;30.00;29.00;35.40;30.00;;;;;;677317;29;6480;-91
2021/07/26 05:36:24;;;;;;;;;30.25;29.00;35.40;30.00;;;;;;678781;29;6407;-92
2021/07/26 05:36:57;;;;;;;;;28.75;28.75;35.40;30.00;;;;;;672306;29;6326;-90
2021/07/26 05:37:30;;;;;;;;;33.00;30.40;35.40;30.00;;;;;;672270;29;6552;-90
2021/07/26 05:37:58;;;;;;;;;36.00;33.00;35.40;30.00;;;;;;674899;29;6258;-90
2021/07/26 05:38:31;;;;;;;;;31.20;29.80;35.40;29.90;;;;;;672282;29;6251;-91
2021/07/26 05:39:04;;;;;;;;;32.75;30.75;35.40;30.00;;;;;;673429;29;6553;-91
2021/07/26 05:39:25;;;;;;;;;29.80;28.80;35.40;29.90;;;;;;674639;29;6488;-91
2021/07/26 05:39:48;;;;;;;;;29.80;29.60;35.40;29.90;;;;;;674674;29;6629;-91
2021/07/26 05:40:14;;;;;;;;;30.00;29.25;35.40;30.00;;;;;;677512;29;5951;-93
2021/07/26 05:40:35;;;;;;;;;33.40;30.40;35.40;30.00;;;;;;677662;29;6190;-88
2021/07/26 05:40:57;;;;;;;;;32.60;30.60;35.40;30.00;;;;;;680196;29;6072;-89
2021/07/26 05:41:18;;;;;;;;;30.60;30.00;35.40;30.00;;;;;;675877;29;7898;-88
2021/07/26 05:41:39;;;;;;;;;36.50;33.00;35.40;30.00;;;;;;674646;29;5033;-88
2021/07/26 05:42:01;;;;;;;;;28.00;27.33;35.40;30.00;;;;;;674494;29;5972;-87
2021/07/26 05:42:22;;;;;;;;;28.50;28.25;35.40;30.00;;;;;;674698;29;6671;-88
2021/07/26 05:42:51;;;;;;;;;29.50;27.50;35.40;30.00;;;;;;671929;29;6198;-89
2021/07/26 05:43:14;;;;;;;;;29.60;28.00;35.40;30.00;;;;;;674872;29;6217;-88
2021/07/26 05:43:38;;;;;;;;;32.00;30.00;35.30;29.90;;;;;;674413;29;6974;-88
2021/07/26 05:44:01;;;;;;;;;29.60;27.80;35.30;29.90;;;;;;673869;29;6232;-91
2021/07/26 05:44:31;;;;;;;;;34.00;30.80;35.40;30.00;;;;;;676782;29;6385;-89
2021/07/26 05:44:53;;;;;;;;;30.80;29.40;35.40;30.00;;;;;;673881;29;6854;-89